createdAt,value
2019-05-02T00:01:29.064Z,6.30
2019-05-02T00:03:58.952Z,6.40
2019-05-02T00:06:28.738Z,6.50
2019-05-02T00:08:58.561Z,6.40
2019-05-02T00:11:29.625Z,6.30
2019-05-02T00:13:59.857Z,6.20
2019-05-02T00:16:29.917Z,6.10
2019-05-02T00:18:59.749Z,6.00
2019-05-02T00:21:32.990Z,5.90
2019-05-02T00:24:03.011Z,5.90
2019-05-02T00:26:31.963Z,5.90
2019-05-02T00:29:01.880Z,5.90
2019-05-02T00:31:32.289Z,6.00
2019-05-02T00:34:03.419Z,6.00
2019-05-02T00:36:33.057Z,6.00
2019-05-02T00:39:02.444Z,6.10
2019-05-02T00:41:33.066Z,6.10
2019-05-02T00:44:06.005Z,6.10
2019-05-02T00:46:36.188Z,6.10
2019-05-02T00:49:06.119Z,6.00
2019-05-02T00:51:35.964Z,5.90
2019-05-02T00:54:05.495Z,5.90
2019-05-02T00:56:35.251Z,5.90
2019-05-02T00:59:07.360Z,5.90
2019-05-02T01:01:38.034Z,5.90
2019-05-02T01:04:15.257Z,5.90
2019-05-02T01:06:49.150Z,5.90
2019-05-02T01:09:16.683Z,5.90
2019-05-02T01:11:46.783Z,5.90
2019-05-02T01:14:17.970Z,6.00
2019-05-02T01:16:49.509Z,6.00
2019-05-02T01:19:19.016Z,5.70
2019-05-02T01:21:49.266Z,5.50
2019-05-02T01:24:19.006Z,5.50
2019-05-02T01:26:52.803Z,5.50
2019-05-02T01:29:24.903Z,5.50
2019-05-02T01:31:56.930Z,5.50
2019-05-02T01:34:40.411Z,5.50
2019-05-02T01:37:20.711Z,5.60
2019-05-02T01:39:46.355Z,5.60
2019-05-02T01:42:16.074Z,5.60
2019-05-02T01:44:45.522Z,5.60
2019-05-02T01:47:15.300Z,5.60
2019-05-02T01:49:45.225Z,5.60
2019-05-02T01:52:18.978Z,5.60
2019-05-02T01:54:47.582Z,5.70
2019-05-02T01:57:17.338Z,5.80
2019-05-02T01:59:47.285Z,5.80
2019-05-02T02:02:17.217Z,5.80
2019-05-02T02:04:46.669Z,5.90
2019-05-02T02:07:19.980Z,5.80
2019-05-02T02:09:48.148Z,5.80
2019-05-02T02:12:18.079Z,5.80
2019-05-02T02:14:48.163Z,5.60
2019-05-02T02:17:18.939Z,5.80
2019-05-02T02:19:56.112Z,5.60
2019-05-02T02:22:27.487Z,5.70
2019-05-02T02:25:00.974Z,5.70
2019-05-02T02:27:30.113Z,5.60
2019-05-02T02:29:59.959Z,5.50
2019-05-02T02:32:29.403Z,5.40
2019-05-02T02:35:03.489Z,5.40
2019-05-02T02:37:30.483Z,5.40
2019-05-02T02:40:00.827Z,5.30
2019-05-02T02:42:31.888Z,5.20
2019-05-02T02:45:03.268Z,5.00
2019-05-02T02:47:32.984Z,4.90
2019-05-02T02:50:05.143Z,4.80
2019-05-02T02:52:38.057Z,4.90
2019-05-02T02:55:06.659Z,4.90
2019-05-02T02:57:36.419Z,5.00
2019-05-02T03:00:10.932Z,5.30
2019-05-02T03:02:47.802Z,5.40
2019-05-02T03:05:10.443Z,5.50
2019-05-02T03:07:39.872Z,5.60
2019-05-02T03:10:09.671Z,5.60
2019-05-02T03:12:57.217Z,5.40
2019-05-02T03:15:29.784Z,5.30
2019-05-02T03:18:00.367Z,5.30
2019-05-02T03:20:40.128Z,5.30
2019-05-02T03:23:03.717Z,5.40
2019-05-02T03:25:50.105Z,5.50
2019-05-02T03:28:17.818Z,5.50
2019-05-02T03:30:38.031Z,5.60
2019-05-02T03:33:11.350Z,5.50
2019-05-02T03:35:44.096Z,5.50
2019-05-02T03:38:11.298Z,5.40
2019-05-02T03:40:41.350Z,5.20
2019-05-02T03:43:19.272Z,5.20
2019-05-02T03:45:44.383Z,5.20
2019-05-02T03:48:18.205Z,5.20
2019-05-02T03:50:45.504Z,5.20
2019-05-02T03:53:17.651Z,5.20
2019-05-02T03:55:47.241Z,5.10
2019-05-02T03:58:17.553Z,5.00
2019-05-02T04:00:47.343Z,5.20
2019-05-02T04:03:18.848Z,5.50
2019-05-02T04:05:48.734Z,5.50
2019-05-02T04:08:20.756Z,5.50
2019-05-02T04:10:59.413Z,5.50
2019-05-02T04:13:24.034Z,5.50
2019-05-02T04:15:53.606Z,5.60
2019-05-02T04:18:23.346Z,5.60
2019-05-02T04:20:53.545Z,5.60
2019-05-02T04:23:27.656Z,5.60
2019-05-02T04:25:55.644Z,5.50
2019-05-02T04:28:25.387Z,5.60
2019-05-02T04:30:55.145Z,5.70
2019-05-02T04:33:29.204Z,5.70
2019-05-02T04:35:59.319Z,5.70
2019-05-02T04:38:39.135Z,5.60
2019-05-02T04:40:59.742Z,5.60
2019-05-02T04:43:29.417Z,5.70
2019-05-02T04:46:00.291Z,5.80
2019-05-02T04:48:34.590Z,5.90
2019-05-02T04:51:10.406Z,5.90
2019-05-02T04:53:41.062Z,6.00
2019-05-02T04:56:06.919Z,6.10
2019-05-02T04:58:39.708Z,6.20
2019-05-02T05:01:09.906Z,6.20
2019-05-02T05:03:38.237Z,6.30
2019-05-02T05:06:12.292Z,6.30
2019-05-02T05:08:41.784Z,6.30
2019-05-02T05:11:13.883Z,6.30
2019-05-02T05:13:42.126Z,6.40
2019-05-02T05:16:15.517Z,6.50
2019-05-02T05:18:43.925Z,6.60
2019-05-02T05:21:14.258Z,6.60
2019-05-02T05:23:47.188Z,6.60
2019-05-02T05:26:17.518Z,6.50
2019-05-02T05:28:47.685Z,6.60
2019-05-02T05:31:23.861Z,6.70
2019-05-02T05:33:48.972Z,6.80
2019-05-02T05:36:20.050Z,7.00
2019-05-02T05:38:50.547Z,7.10
2019-05-02T05:41:23.237Z,7.30
2019-05-02T05:43:53.678Z,7.40
2019-05-02T05:46:23.991Z,7.50
2019-05-02T05:48:53.827Z,7.60
2019-05-02T05:51:24.730Z,7.60
2019-05-02T05:53:59.116Z,7.70
2019-05-02T05:56:27.403Z,8.00
2019-05-02T05:58:59.219Z,8.10
2019-05-02T06:01:34.088Z,8.20
2019-05-02T06:04:00.696Z,8.20
2019-05-02T06:06:30.838Z,8.20
2019-05-02T06:09:00.585Z,8.20
2019-05-02T06:11:30.681Z,8.20
2019-05-02T06:14:00.183Z,8.20
2019-05-02T06:16:29.959Z,8.50
2019-05-02T06:18:59.896Z,8.70
2019-05-02T06:21:31.131Z,8.70
2019-05-02T06:24:00.888Z,8.90
2019-05-02T06:26:30.344Z,9.10
2019-05-02T06:28:59.813Z,9.10
2019-05-02T06:31:29.546Z,9.20
2019-05-02T06:34:02.062Z,9.20
2019-05-02T06:36:31.993Z,9.30
2019-05-02T06:39:02.855Z,9.40
2019-05-02T06:41:32.509Z,9.50
2019-05-02T06:44:02.293Z,9.50
2019-05-02T06:46:31.812Z,9.60
2019-05-02T06:49:01.255Z,9.60
2019-05-02T06:51:30.920Z,9.70
2019-05-02T06:54:00.662Z,9.90
2019-05-02T06:56:31.341Z,9.90
2019-05-02T06:59:03.561Z,9.90
2019-05-02T07:01:34.097Z,9.90
2019-05-02T07:04:04.459Z,10.00
2019-05-02T07:06:41.929Z,9.80
2019-05-02T07:09:06.960Z,9.70
2019-05-02T07:11:39.019Z,9.70
2019-05-02T07:14:13.576Z,9.80
2019-05-02T07:16:41.738Z,9.90
2019-05-02T07:19:29.423Z,9.90
2019-05-02T07:22:04.035Z,10.00
2019-05-02T07:24:32.537Z,10.10
2019-05-02T07:27:02.710Z,10.20
2019-05-02T07:29:32.610Z,10.30
2019-05-02T07:32:02.042Z,10.50
2019-05-02T07:34:31.686Z,10.60
2019-05-02T07:37:01.137Z,10.70
2019-05-02T07:39:31.246Z,10.70
2019-05-02T07:42:05.890Z,10.80
2019-05-02T07:44:34.392Z,10.90
2019-05-02T07:47:04.749Z,11.00
2019-05-02T07:49:34.546Z,11.20
2019-05-02T07:52:04.423Z,11.40
2019-05-02T07:54:34.362Z,11.40
2019-05-02T07:57:04.185Z,11.40
2019-05-02T07:59:34.030Z,11.50
2019-05-02T08:02:04.032Z,11.60
2019-05-02T08:04:34.104Z,11.70
2019-05-02T08:07:03.863Z,11.60
2019-05-02T08:09:34.343Z,11.70
2019-05-02T08:12:07.504Z,11.60
2019-05-02T08:14:37.313Z,11.60
2019-05-02T08:17:15.849Z,11.60
2019-05-02T08:19:41.788Z,11.50
2019-05-02T08:22:13.480Z,11.50
2019-05-02T08:24:43.008Z,11.30
2019-05-02T08:27:18.098Z,11.20
2019-05-02T08:29:47.539Z,11.10
2019-05-02T08:32:19.253Z,11.10
2019-05-02T08:34:51.610Z,11.00
2019-05-02T08:37:20.531Z,11.00
2019-05-02T08:39:50.211Z,11.10
2019-05-02T08:42:20.336Z,11.10
2019-05-02T08:44:51.514Z,11.00
2019-05-02T08:47:23.838Z,10.80
2019-05-02T08:49:54.623Z,10.90
2019-05-02T08:52:24.804Z,11.00
2019-05-02T08:54:54.818Z,11.00
2019-05-02T08:57:25.032Z,11.10
2019-05-02T08:59:55.390Z,11.10
2019-05-02T09:02:27.360Z,11.10
2019-05-02T09:04:58.647Z,11.10
2019-05-02T09:07:31.666Z,11.10
2019-05-02T09:10:00.306Z,11.10
2019-05-02T09:12:31.999Z,11.20
2019-05-02T09:15:02.710Z,11.30
2019-05-02T09:17:38.278Z,11.40
2019-05-02T09:20:15.416Z,11.40
2019-05-02T09:22:41.733Z,11.40
2019-05-02T09:25:12.584Z,11.50
2019-05-02T09:27:42.627Z,11.40
2019-05-02T09:30:17.141Z,11.30
2019-05-02T09:32:46.061Z,11.30
2019-05-02T09:35:15.762Z,11.30
2019-05-02T09:37:45.445Z,11.30
2019-05-02T09:40:16.874Z,11.30
2019-05-02T09:42:47.602Z,11.40
2019-05-02T09:45:35.739Z,11.40
2019-05-02T09:48:05.160Z,11.50
2019-05-02T09:50:34.257Z,11.50
2019-05-02T09:53:02.941Z,11.50
2019-05-02T09:55:32.685Z,11.50
2019-05-02T09:58:05.150Z,11.50
2019-05-02T10:00:45.543Z,11.60
2019-05-02T10:03:16.327Z,11.80
2019-05-02T10:05:46.454Z,11.90
2019-05-02T10:08:16.177Z,12.00
2019-05-02T10:10:46.290Z,12.10
2019-05-02T10:13:16.340Z,12.40
2019-05-02T10:15:47.104Z,12.50
2019-05-02T10:18:19.650Z,12.60
2019-05-02T10:20:48.279Z,12.60
2019-05-02T10:23:19.599Z,12.50
2019-05-02T10:25:51.964Z,12.50
2019-05-02T10:28:22.913Z,12.50
2019-05-02T10:30:56.556Z,12.50
2019-05-02T10:33:27.881Z,12.40
2019-05-02T10:35:55.404Z,12.40
2019-05-02T10:38:24.955Z,12.50
2019-05-02T10:41:01.291Z,12.40
2019-05-02T10:43:27.170Z,12.40
2019-05-02T10:45:58.559Z,12.30
2019-05-02T10:48:29.027Z,12.30
2019-05-02T10:51:19.564Z,12.30
2019-05-02T10:53:52.634Z,12.20
2019-05-02T10:56:22.102Z,12.20
2019-05-02T10:58:52.367Z,12.20
2019-05-02T11:01:23.733Z,12.20
2019-05-02T11:03:54.873Z,12.20
2019-05-02T11:06:24.727Z,12.00
2019-05-02T11:08:54.754Z,12.00
2019-05-02T11:11:24.854Z,11.80
2019-05-02T11:14:05.699Z,11.60
2019-05-02T11:16:37.960Z,11.50
2019-05-02T11:19:13.063Z,11.50
2019-05-02T11:21:55.512Z,11.60
2019-05-02T11:24:14.787Z,11.60
2019-05-02T11:26:44.235Z,11.80
2019-05-02T11:29:13.860Z,11.90
2019-05-02T11:31:43.524Z,11.90
2019-05-02T11:34:13.582Z,12.00
2019-05-02T11:36:43.970Z,12.30
2019-05-02T11:39:24.624Z,12.40
2019-05-02T11:41:45.543Z,12.30
2019-05-02T11:44:15.094Z,12.20
2019-05-02T11:46:47.095Z,12.00
2019-05-02T11:49:16.762Z,12.00
2019-05-02T11:51:47.047Z,12.20
2019-05-02T11:54:18.123Z,12.40
2019-05-02T11:56:49.168Z,12.30
2019-05-02T11:59:22.586Z,12.10
2019-05-02T12:01:59.748Z,12.00
2019-05-02T12:04:26.675Z,11.60
2019-05-02T12:07:01.138Z,11.40
2019-05-02T12:09:27.966Z,11.40
2019-05-02T12:11:58.088Z,11.60
2019-05-02T12:14:34.585Z,11.50
2019-05-02T12:16:59.310Z,11.50
2019-05-02T12:19:29.054Z,11.40
2019-05-02T12:21:58.553Z,11.40
2019-05-02T12:24:28.270Z,11.30
2019-05-02T12:26:57.947Z,11.40
2019-05-02T12:29:27.385Z,11.30
2019-05-02T12:31:57.143Z,11.30
2019-05-02T12:34:27.152Z,11.30
2019-05-02T12:36:57.202Z,11.40
2019-05-02T12:39:26.851Z,11.30
2019-05-02T12:41:56.710Z,11.30
2019-05-02T12:44:26.722Z,11.30
2019-05-02T12:46:56.375Z,11.40
2019-05-02T12:49:27.995Z,11.50
2019-05-02T12:51:57.655Z,11.60
2019-05-02T12:54:27.589Z,11.80
2019-05-02T12:56:57.311Z,11.80
2019-05-02T12:59:27.006Z,11.90
2019-05-02T13:01:58.577Z,12.30
2019-05-02T13:04:28.914Z,12.30
2019-05-02T13:06:58.604Z,12.50
2019-05-02T13:09:28.244Z,12.70
2019-05-02T13:12:02.942Z,12.70
2019-05-02T13:14:32.702Z,13.00
2019-05-02T13:17:05.861Z,13.10
2019-05-02T13:19:40.158Z,12.90
2019-05-02T13:22:12.361Z,12.80
2019-05-02T13:24:46.952Z,13.00
2019-05-02T13:27:18.470Z,13.00
2019-05-02T13:29:49.767Z,13.00
2019-05-02T13:32:21.806Z,12.90
2019-05-02T13:35:08.610Z,13.10
2019-05-02T13:37:38.738Z,12.80
2019-05-02T13:40:17.269Z,12.80
2019-05-02T13:42:46.966Z,12.70
2019-05-02T13:45:21.761Z,12.90
2019-05-02T13:47:51.923Z,12.90
2019-05-02T13:50:22.415Z,13.10
2019-05-02T13:52:57.696Z,12.90
2019-05-02T13:55:27.210Z,12.50
2019-05-02T13:57:57.060Z,12.40
2019-05-02T14:00:28.783Z,12.30
2019-05-02T14:02:58.884Z,12.20
2019-05-02T14:05:28.628Z,12.10
2019-05-02T14:08:12.294Z,12.10
2019-05-02T14:10:43.611Z,12.10
2019-05-02T14:13:13.341Z,12.50
2019-05-02T14:15:43.238Z,12.90
2019-05-02T14:18:13.982Z,13.00
2019-05-02T14:20:45.127Z,12.80
2019-05-02T14:23:14.861Z,12.90
2019-05-02T14:25:44.742Z,12.80
2019-05-02T14:28:14.355Z,12.70
2019-05-02T14:30:46.207Z,12.70
2019-05-02T14:33:17.251Z,12.50
2019-05-02T14:35:48.526Z,12.50
2019-05-02T14:38:18.635Z,12.50
2019-05-02T14:40:51.882Z,12.30
2019-05-02T14:43:46.178Z,12.20
2019-05-02T14:46:12.607Z,12.20
2019-05-02T14:48:45.353Z,12.10
2019-05-02T14:51:19.928Z,12.00
2019-05-02T14:53:47.314Z,12.10
2019-05-02T14:56:22.800Z,12.30
2019-05-02T14:58:52.983Z,12.50
2019-05-02T15:01:26.155Z,12.80
2019-05-02T15:03:58.343Z,13.30
2019-05-02T15:06:25.727Z,13.80
2019-05-02T15:08:55.233Z,13.50
2019-05-02T15:11:30.931Z,13.60
2019-05-02T15:13:57.310Z,13.60
2019-05-02T15:16:39.637Z,13.20
2019-05-02T15:18:58.620Z,13.20
2019-05-02T15:21:46.981Z,13.00
2019-05-02T15:24:14.758Z,12.80
2019-05-02T15:26:44.461Z,13.40
2019-05-02T15:29:19.970Z,14.40
2019-05-02T15:31:47.455Z,14.80
2019-05-02T15:34:41.900Z,15.00
2019-05-02T15:37:06.239Z,14.50
2019-05-02T15:42:07.106Z,13.50
2019-05-02T15:44:37.300Z,13.60
2019-05-02T15:47:07.239Z,13.70
2019-05-02T15:49:41.711Z,14.20
2019-05-02T15:52:12.563Z,14.50
2019-05-02T15:54:43.581Z,15.20
2019-05-02T15:57:18.938Z,15.10
2019-05-02T15:59:46.409Z,14.80
2019-05-02T16:02:22.175Z,15.00
2019-05-02T16:04:49.951Z,15.50
2019-05-02T16:07:19.521Z,15.60
2019-05-02T16:09:51.600Z,15.70
2019-05-02T16:12:22.196Z,15.00
2019-05-02T16:14:52.809Z,14.80
2019-05-02T16:17:25.615Z,14.70
2019-05-02T16:19:58.672Z,14.50
2019-05-02T16:22:28.881Z,14.60
2019-05-02T16:24:58.590Z,14.20
2019-05-02T16:27:44.737Z,14.10
2019-05-02T16:30:18.159Z,13.60
2019-05-02T16:32:52.213Z,13.30
2019-05-02T16:35:23.905Z,13.30
2019-05-02T16:37:56.050Z,13.40
2019-05-02T16:40:29.629Z,14.10
2019-05-02T16:42:57.655Z,15.10
2019-05-02T16:45:27.172Z,15.80
2019-05-02T16:47:59.096Z,15.40
2019-05-02T16:50:35.213Z,15.20
2019-05-02T16:52:59.503Z,14.60
2019-05-02T16:55:29.038Z,14.30
2019-05-02T16:58:02.681Z,13.80
2019-05-02T17:00:32.044Z,13.60
2019-05-02T17:03:03.787Z,13.60
2019-05-02T17:05:33.323Z,13.40
2019-05-02T17:08:18.507Z,13.20
2019-05-02T17:10:47.487Z,13.20
2019-05-02T17:13:17.489Z,13.10
2019-05-02T17:15:47.326Z,13.00
2019-05-02T17:18:18.344Z,12.90
2019-05-02T17:20:53.333Z,12.70
2019-05-02T17:23:19.823Z,12.80
2019-05-02T17:25:49.663Z,12.80
2019-05-02T17:28:22.189Z,12.80
2019-05-02T17:30:52.522Z,12.70
2019-05-02T17:33:22.131Z,12.50
2019-05-02T17:35:54.059Z,12.60
2019-05-02T17:38:27.340Z,12.70
2019-05-02T17:40:58.806Z,12.70
2019-05-02T17:43:25.865Z,12.70
2019-05-02T17:45:56.389Z,12.70
2019-05-02T17:48:26.124Z,12.70
2019-05-02T17:51:13.323Z,12.60
2019-05-02T17:53:49.579Z,12.60
2019-05-02T17:56:20.852Z,12.50
2019-05-02T17:58:53.449Z,12.50
2019-05-02T18:01:18.691Z,12.30
2019-05-02T18:03:49.861Z,12.30
2019-05-02T18:06:30.760Z,12.20
2019-05-02T18:08:55.127Z,12.10
2019-05-02T18:11:22.705Z,12.00
2019-05-02T18:13:52.438Z,11.90
2019-05-02T18:16:22.467Z,11.80
2019-05-02T18:18:52.250Z,11.70
2019-05-02T18:21:26.892Z,11.70
2019-05-02T18:23:57.171Z,11.60
2019-05-02T18:26:25.086Z,11.60
2019-05-02T18:28:57.262Z,11.60
2019-05-02T18:31:26.398Z,11.60
2019-05-02T18:33:56.052Z,11.50
2019-05-02T18:36:26.993Z,11.40
2019-05-02T18:39:00.611Z,11.40
2019-05-02T18:41:28.732Z,11.40
2019-05-02T18:43:59.583Z,11.30
2019-05-02T18:46:29.241Z,11.30
2019-05-02T18:48:59.079Z,11.20
2019-05-02T18:51:28.896Z,11.10
2019-05-02T18:54:04.573Z,11.10
2019-05-02T18:56:34.254Z,11.00
2019-05-02T18:59:02.659Z,11.00
2019-05-02T19:01:32.466Z,10.90
2019-05-02T19:04:02.210Z,10.80
2019-05-02T19:06:33.364Z,10.80
2019-05-02T19:09:06.773Z,10.70
2019-05-02T19:11:36.603Z,10.60
2019-05-02T19:14:06.643Z,10.50
2019-05-02T19:16:36.466Z,10.50
2019-05-02T19:19:06.567Z,10.50
2019-05-02T19:21:39.203Z,10.40
2019-05-02T19:24:07.418Z,10.20
2019-05-02T19:26:41.574Z,10.10
2019-05-02T19:29:14.304Z,10.00
2019-05-02T19:31:46.164Z,9.90
2019-05-02T19:34:16.932Z,10.00
2019-05-02T19:36:46.861Z,10.00
2019-05-02T19:39:16.466Z,10.00
2019-05-02T19:41:46.468Z,9.90
2019-05-02T19:44:21.405Z,9.90
2019-05-02T19:46:47.815Z,9.90
2019-05-02T19:49:17.665Z,9.80
2019-05-02T19:51:50.575Z,9.80
2019-05-02T19:54:18.450Z,9.70
2019-05-02T19:56:47.907Z,9.70
2019-05-02T19:59:24.507Z,9.70
2019-05-02T20:01:52.175Z,9.70
2019-05-02T20:04:22.227Z,9.70
2019-05-02T20:06:52.566Z,9.70
2019-05-02T20:09:22.357Z,9.60
2019-05-02T20:11:52.175Z,9.60
2019-05-02T20:14:22.510Z,9.60
2019-05-02T20:16:54.072Z,9.40
2019-05-02T20:19:26.895Z,9.30
2019-05-02T20:22:01.651Z,9.20
2019-05-02T20:24:49.142Z,9.10
2019-05-02T20:27:17.617Z,9.10
2019-05-02T20:29:47.257Z,9.00
2019-05-02T20:32:17.239Z,9.00
2019-05-02T20:34:47.170Z,9.00
2019-05-02T20:37:17.062Z,9.00
2019-05-02T20:39:46.887Z,9.00
2019-05-02T20:42:16.936Z,8.90
2019-05-02T20:44:46.699Z,8.80
2019-05-02T20:47:19.414Z,8.80
2019-05-02T20:49:48.975Z,8.80
2019-05-02T20:52:21.753Z,8.80
2019-05-02T20:54:52.642Z,8.70
2019-05-02T20:57:22.439Z,8.60
2019-05-02T20:59:52.893Z,8.60
2019-05-02T21:02:22.684Z,8.60
2019-05-02T21:04:52.556Z,8.40
2019-05-02T21:07:23.869Z,8.50
2019-05-02T21:10:03.923Z,8.50
2019-05-02T21:12:33.843Z,8.40
2019-05-02T21:15:05.659Z,8.30
2019-05-02T21:17:35.478Z,8.30
2019-05-02T21:20:06.963Z,8.30
2019-05-02T21:22:36.739Z,8.30
2019-05-02T21:25:07.543Z,8.10
2019-05-02T21:27:37.106Z,8.10
2019-05-02T21:30:09.667Z,8.00
2019-05-02T21:32:39.413Z,8.10
2019-05-02T21:35:11.851Z,8.00
2019-05-02T21:37:42.454Z,8.00
2019-05-02T21:40:12.803Z,8.00
2019-05-02T21:42:42.667Z,8.20
2019-05-02T21:45:13.195Z,8.10
2019-05-02T21:47:42.958Z,8.10
2019-05-02T21:50:17.748Z,8.00
2019-05-02T21:53:05.047Z,8.00
2019-05-02T21:55:42.969Z,8.00
2019-05-02T21:58:12.748Z,8.00
2019-05-02T22:00:47.369Z,8.00
2019-05-02T22:03:17.248Z,8.10
2019-05-02T22:05:47.002Z,8.20
2019-05-02T22:08:16.852Z,8.20
2019-05-02T22:10:46.606Z,8.30
2019-05-02T22:13:16.174Z,8.20
2019-05-02T22:15:45.938Z,8.10
2019-05-02T22:18:15.698Z,8.20
2019-05-02T22:20:45.274Z,8.30
2019-05-02T22:23:15.208Z,8.40
2019-05-02T22:25:45.079Z,8.40
2019-05-02T22:28:15.153Z,8.30
2019-05-02T22:30:44.915Z,8.20
2019-05-02T22:33:14.593Z,8.30
2019-05-02T22:35:44.254Z,8.30
2019-05-02T22:38:15.463Z,8.30
2019-05-02T22:40:46.755Z,8.30
2019-05-02T22:43:16.257Z,8.40
2019-05-02T22:45:45.816Z,8.40
2019-05-02T22:48:15.492Z,8.50
2019-05-02T22:50:47.119Z,8.50
2019-05-02T22:53:16.698Z,8.40
2019-05-02T22:55:46.466Z,8.40
2019-05-02T22:58:16.139Z,8.40
2019-05-02T23:00:45.884Z,8.50
2019-05-02T23:03:15.469Z,8.50
2019-05-02T23:05:45.385Z,8.40
2019-05-02T23:08:14.961Z,8.40
2019-05-02T23:10:44.724Z,8.50
2019-05-02T23:13:14.777Z,8.50
2019-05-02T23:15:44.566Z,8.50
2019-05-02T23:18:14.283Z,8.40
2019-05-02T23:20:44.345Z,8.40
2019-05-02T23:23:15.316Z,8.40
2019-05-02T23:26:03.117Z,8.40
2019-05-02T23:28:34.813Z,8.30
2019-05-02T23:31:04.437Z,8.40
2019-05-02T23:33:51.929Z,8.30
2019-05-02T23:36:21.481Z,8.30
2019-05-02T23:38:52.196Z,8.40
2019-05-02T23:41:22.274Z,8.40
2019-05-02T23:43:52.524Z,8.30
2019-05-02T23:46:22.990Z,8.30
2019-05-02T23:48:52.752Z,8.30
2019-05-02T23:51:22.686Z,8.30
2019-05-02T23:53:52.778Z,8.30
2019-05-02T23:56:23.171Z,8.30
2019-05-02T23:58:53.014Z,8.20
